sensor_id;sensor_type;location;lat;lon;timestamp;P1;durP1;ratioP1;P2;durP2;ratioP2
71464;SDS011;59274;49.874;9.154;2023-05-23T00:00:30;11.67;;;5.80;;
71464;SDS011;59274;49.874;9.154;2023-05-23T00:02:57;11.23;;;5.47;;
71464;SDS011;59274;49.874;9.154;2023-05-23T00:05:24;10.23;;;5.18;;
71464;SDS011;59274;49.874;9.154;2023-05-23T00:07:50;10.97;;;5.43;;
71464;SDS011;59274;49.874;9.154;2023-05-23T00:10:16;10.80;;;5.25;;
71464;SDS011;59274;49.874;9.154;2023-05-23T00:12:41;11.93;;;5.40;;
71464;SDS011;59274;49.874;9.154;2023-05-23T00:15:07;9.77;;;5.00;;
71464;SDS011;59274;49.874;9.154;2023-05-23T00:17:34;10.35;;;4.75;;
71464;SDS011;59274;49.874;9.154;2023-05-23T00:20:02;9.93;;;5.25;;
71464;SDS011;59274;49.874;9.154;2023-05-23T00:22:28;10.00;;;4.93;;
71464;SDS011;59274;49.874;9.154;2023-05-23T00:24:53;10.07;;;4.93;;
71464;SDS011;59274;49.874;9.154;2023-05-23T00:27:22;10.80;;;5.37;;
71464;SDS011;59274;49.874;9.154;2023-05-23T00:29:47;10.65;;;5.30;;
71464;SDS011;59274;49.874;9.154;2023-05-23T00:32:13;10.05;;;5.05;;
71464;SDS011;59274;49.874;9.154;2023-05-23T00:34:38;13.50;;;5.53;;
71464;SDS011;59274;49.874;9.154;2023-05-23T00:37:04;9.97;;;5.10;;
71464;SDS011;59274;49.874;9.154;2023-05-23T00:39:29;12.40;;;4.63;;
71464;SDS011;59274;49.874;9.154;2023-05-23T00:41:55;10.57;;;5.30;;
71464;SDS011;59274;49.874;9.154;2023-05-23T00:44:21;12.90;;;5.05;;
71464;SDS011;59274;49.874;9.154;2023-05-23T00:46:51;10.17;;;4.67;;
71464;SDS011;59274;49.874;9.154;2023-05-23T00:49:19;11.32;;;5.45;;
71464;SDS011;59274;49.874;9.154;2023-05-23T00:51:45;10.15;;;5.13;;
71464;SDS011;59274;49.874;9.154;2023-05-23T00:54:14;10.13;;;4.53;;
71464;SDS011;59274;49.874;9.154;2023-05-23T00:56:44;8.77;;;3.90;;
71464;SDS011;59274;49.874;9.154;2023-05-23T00:59:11;9.68;;;5.45;;
71464;SDS011;59274;49.874;9.154;2023-05-23T01:01:37;11.93;;;4.88;;
71464;SDS011;59274;49.874;9.154;2023-05-23T01:04:03;15.03;;;6.20;;
71464;SDS011;59274;49.874;9.154;2023-05-23T01:06:28;13.98;;;6.20;;
71464;SDS011;59274;49.874;9.154;2023-05-23T01:08:55;12.38;;;5.75;;
71464;SDS011;59274;49.874;9.154;2023-05-23T01:11:28;11.73;;;5.70;;
71464;SDS011;59274;49.874;9.154;2023-05-23T01:14:10;11.20;;;5.50;;
71464;SDS011;59274;49.874;9.154;2023-05-23T01:16:43;12.32;;;5.82;;
71464;SDS011;59274;49.874;9.154;2023-05-23T01:19:26;10.43;;;5.65;;
71464;SDS011;59274;49.874;9.154;2023-05-23T01:22:00;9.63;;;5.10;;
71464;SDS011;59274;49.874;9.154;2023-05-23T01:27:40;13.95;;;6.25;;
71464;SDS011;59274;49.874;9.154;2023-05-23T01:30:18;13.05;;;6.43;;
71464;SDS011;59274;49.874;9.154;2023-05-23T01:32:45;16.23;;;6.32;;
71464;SDS011;59274;49.874;9.154;2023-05-23T01:35:12;13.33;;;6.23;;
71464;SDS011;59274;49.874;9.154;2023-05-23T01:37:40;10.57;;;5.43;;
71464;SDS011;59274;49.874;9.154;2023-05-23T01:40:06;12.17;;;5.97;;
71464;SDS011;59274;49.874;9.154;2023-05-23T01:42:31;13.57;;;6.60;;
71464;SDS011;59274;49.874;9.154;2023-05-23T01:44:57;12.20;;;6.50;;
71464;SDS011;59274;49.874;9.154;2023-05-23T01:47:23;11.57;;;6.03;;
71464;SDS011;59274;49.874;9.154;2023-05-23T01:49:49;13.05;;;5.85;;
71464;SDS011;59274;49.874;9.154;2023-05-23T01:52:16;12.43;;;5.78;;
71464;SDS011;59274;49.874;9.154;2023-05-23T01:54:42;12.60;;;6.23;;
71464;SDS011;59274;49.874;9.154;2023-05-23T01:57:08;13.10;;;6.45;;
71464;SDS011;59274;49.874;9.154;2023-05-23T01:59:35;13.40;;;6.55;;
71464;SDS011;59274;49.874;9.154;2023-05-23T02:02:02;12.65;;;6.35;;
71464;SDS011;59274;49.874;9.154;2023-05-23T02:04:28;13.50;;;5.80;;
71464;SDS011;59274;49.874;9.154;2023-05-23T02:06:53;11.25;;;5.60;;
71464;SDS011;59274;49.874;9.154;2023-05-23T02:09:19;14.68;;;6.90;;
71464;SDS011;59274;49.874;9.154;2023-05-23T02:11:47;12.83;;;5.97;;
71464;SDS011;59274;49.874;9.154;2023-05-23T02:14:12;11.35;;;5.35;;
71464;SDS011;59274;49.874;9.154;2023-05-23T02:16:38;14.43;;;6.50;;
71464;SDS011;59274;49.874;9.154;2023-05-23T02:19:03;14.63;;;6.83;;
71464;SDS011;59274;49.874;9.154;2023-05-23T02:21:29;14.77;;;6.67;;
71464;SDS011;59274;49.874;9.154;2023-05-23T02:23:55;14.13;;;7.38;;
71464;SDS011;59274;49.874;9.154;2023-05-23T02:26:21;14.17;;;6.53;;
71464;SDS011;59274;49.874;9.154;2023-05-23T02:28:46;15.50;;;6.55;;
71464;SDS011;59274;49.874;9.154;2023-05-23T02:31:12;13.17;;;6.00;;
71464;SDS011;59274;49.874;9.154;2023-05-23T02:33:37;17.20;;;7.10;;
71464;SDS011;59274;49.874;9.154;2023-05-23T02:36:02;14.30;;;6.57;;
71464;SDS011;59274;49.874;9.154;2023-05-23T02:38:29;14.63;;;6.50;;
71464;SDS011;59274;49.874;9.154;2023-05-23T02:40:55;16.25;;;6.38;;
71464;SDS011;59274;49.874;9.154;2023-05-23T02:43:21;20.93;;;6.90;;
71464;SDS011;59274;49.874;9.154;2023-05-23T02:45:47;16.08;;;6.95;;
71464;SDS011;59274;49.874;9.154;2023-05-23T02:48:13;13.93;;;7.23;;
71464;SDS011;59274;49.874;9.154;2023-05-23T02:50:38;12.70;;;6.43;;
71464;SDS011;59274;49.874;9.154;2023-05-23T02:53:03;14.00;;;7.40;;
71464;SDS011;59274;49.874;9.154;2023-05-23T02:55:29;14.07;;;6.83;;
71464;SDS011;59274;49.874;9.154;2023-05-23T02:57:56;12.52;;;7.07;;
71464;SDS011;59274;49.874;9.154;2023-05-23T03:00:22;16.73;;;6.80;;
71464;SDS011;59274;49.874;9.154;2023-05-23T03:02:48;14.77;;;7.83;;
71464;SDS011;59274;49.874;9.154;2023-05-23T03:05:14;14.05;;;6.85;;
71464;SDS011;59274;49.874;9.154;2023-05-23T03:07:39;16.00;;;7.13;;
71464;SDS011;59274;49.874;9.154;2023-05-23T03:10:05;12.30;;;7.30;;
71464;SDS011;59274;49.874;9.154;2023-05-23T03:12:31;18.10;;;7.22;;
71464;SDS011;59274;49.874;9.154;2023-05-23T03:14:56;16.50;;;8.20;;
71464;SDS011;59274;49.874;9.154;2023-05-23T03:17:23;16.70;;;8.07;;
71464;SDS011;59274;49.874;9.154;2023-05-23T03:19:49;15.43;;;7.35;;
71464;SDS011;59274;49.874;9.154;2023-05-23T03:22:15;17.27;;;8.23;;
71464;SDS011;59274;49.874;9.154;2023-05-23T03:24:40;17.15;;;9.07;;
71464;SDS011;59274;49.874;9.154;2023-05-23T03:27:06;16.47;;;8.17;;
71464;SDS011;59274;49.874;9.154;2023-05-23T03:29:31;18.23;;;8.67;;
71464;SDS011;59274;49.874;9.154;2023-05-23T03:31:57;16.53;;;8.47;;
71464;SDS011;59274;49.874;9.154;2023-05-23T03:34:22;17.98;;;8.43;;
71464;SDS011;59274;49.874;9.154;2023-05-23T03:36:48;16.48;;;8.50;;
71464;SDS011;59274;49.874;9.154;2023-05-23T03:39:13;19.60;;;9.80;;
71464;SDS011;59274;49.874;9.154;2023-05-23T03:41:39;24.08;;;9.45;;
71464;SDS011;59274;49.874;9.154;2023-05-23T03:44:04;15.70;;;8.43;;
71464;SDS011;59274;49.874;9.154;2023-05-23T03:46:30;18.83;;;8.47;;
71464;SDS011;59274;49.874;9.154;2023-05-23T03:48:55;16.80;;;8.33;;
71464;SDS011;59274;49.874;9.154;2023-05-23T03:51:21;21.20;;;10.03;;
71464;SDS011;59274;49.874;9.154;2023-05-23T03:53:46;21.40;;;10.07;;
71464;SDS011;59274;49.874;9.154;2023-05-23T03:56:11;20.67;;;9.47;;
71464;SDS011;59274;49.874;9.154;2023-05-23T03:58:37;18.30;;;9.77;;
71464;SDS011;59274;49.874;9.154;2023-05-23T04:01:02;19.57;;;10.53;;
71464;SDS011;59274;49.874;9.154;2023-05-23T04:03:28;25.92;;;11.43;;
71464;SDS011;59274;49.874;9.154;2023-05-23T04:05:56;19.48;;;10.98;;
71464;SDS011;59274;49.874;9.154;2023-05-23T04:08:22;19.77;;;9.90;;
71464;SDS011;59274;49.874;9.154;2023-05-23T04:10:48;21.17;;;11.25;;
71464;SDS011;59274;49.874;9.154;2023-05-23T04:13:14;23.87;;;11.93;;
71464;SDS011;59274;49.874;9.154;2023-05-23T04:15:39;20.25;;;9.90;;
71464;SDS011;59274;49.874;9.154;2023-05-23T04:18:05;21.73;;;10.63;;
71464;SDS011;59274;49.874;9.154;2023-05-23T04:20:33;21.13;;;10.23;;
71464;SDS011;59274;49.874;9.154;2023-05-23T04:22:58;21.17;;;11.13;;
71464;SDS011;59274;49.874;9.154;2023-05-23T04:25:24;23.07;;;10.77;;
71464;SDS011;59274;49.874;9.154;2023-05-23T04:27:50;23.05;;;11.13;;
71464;SDS011;59274;49.874;9.154;2023-05-23T04:30:16;25.42;;;12.35;;
71464;SDS011;59274;49.874;9.154;2023-05-23T04:32:42;21.15;;;11.05;;
71464;SDS011;59274;49.874;9.154;2023-05-23T04:35:08;21.60;;;11.27;;
71464;SDS011;59274;49.874;9.154;2023-05-23T04:37:34;20.13;;;10.03;;
71464;SDS011;59274;49.874;9.154;2023-05-23T04:40:02;16.45;;;9.25;;
71464;SDS011;59274;49.874;9.154;2023-05-23T04:42:28;18.45;;;9.02;;
71464;SDS011;59274;49.874;9.154;2023-05-23T04:44:53;19.10;;;8.77;;
71464;SDS011;59274;49.874;9.154;2023-05-23T04:47:21;18.52;;;9.68;;
71464;SDS011;59274;49.874;9.154;2023-05-23T04:49:48;16.23;;;7.90;;
71464;SDS011;59274;49.874;9.154;2023-05-23T04:52:14;15.50;;;8.65;;
71464;SDS011;59274;49.874;9.154;2023-05-23T04:54:43;15.03;;;8.53;;
71464;SDS011;59274;49.874;9.154;2023-05-23T04:57:10;15.80;;;7.70;;
71464;SDS011;59274;49.874;9.154;2023-05-23T04:59:37;13.40;;;7.03;;
71464;SDS011;59274;49.874;9.154;2023-05-23T05:02:03;15.43;;;7.70;;
71464;SDS011;59274;49.874;9.154;2023-05-23T05:04:30;13.80;;;6.85;;
71464;SDS011;59274;49.874;9.154;2023-05-23T05:06:55;13.80;;;7.97;;
71464;SDS011;59274;49.874;9.154;2023-05-23T05:09:21;15.10;;;8.40;;
71464;SDS011;59274;49.874;9.154;2023-05-23T05:11:47;16.45;;;9.07;;
71464;SDS011;59274;49.874;9.154;2023-05-23T05:14:13;16.17;;;7.90;;
71464;SDS011;59274;49.874;9.154;2023-05-23T05:16:38;14.98;;;7.82;;
71464;SDS011;59274;49.874;9.154;2023-05-23T05:19:04;14.33;;;7.13;;
71464;SDS011;59274;49.874;9.154;2023-05-23T05:21:29;15.30;;;7.30;;
71464;SDS011;59274;49.874;9.154;2023-05-23T05:23:56;12.93;;;7.03;;
71464;SDS011;59274;49.874;9.154;2023-05-23T05:26:23;13.50;;;6.90;;
71464;SDS011;59274;49.874;9.154;2023-05-23T05:28:49;14.27;;;6.53;;
71464;SDS011;59274;49.874;9.154;2023-05-23T05:31:15;12.07;;;6.38;;
71464;SDS011;59274;49.874;9.154;2023-05-23T05:33:41;15.03;;;6.57;;
71464;SDS011;59274;49.874;9.154;2023-05-23T05:36:09;11.73;;;5.95;;
71464;SDS011;59274;49.874;9.154;2023-05-23T05:38:35;11.27;;;6.07;;
71464;SDS011;59274;49.874;9.154;2023-05-23T05:41:00;15.00;;;6.30;;
71464;SDS011;59274;49.874;9.154;2023-05-23T05:43:26;13.30;;;5.50;;
71464;SDS011;59274;49.874;9.154;2023-05-23T05:45:51;10.80;;;5.30;;
71464;SDS011;59274;49.874;9.154;2023-05-23T05:48:17;13.80;;;6.40;;
71464;SDS011;59274;49.874;9.154;2023-05-23T05:50:42;11.52;;;5.25;;
71464;SDS011;59274;49.874;9.154;2023-05-23T05:53:10;10.57;;;5.13;;
71464;SDS011;59274;49.874;9.154;2023-05-23T05:55:37;10.48;;;5.32;;
71464;SDS011;59274;49.874;9.154;2023-05-23T05:58:02;11.10;;;4.97;;
71464;SDS011;59274;49.874;9.154;2023-05-23T06:00:28;10.60;;;5.28;;
71464;SDS011;59274;49.874;9.154;2023-05-23T06:02:59;13.20;;;6.13;;
71464;SDS011;59274;49.874;9.154;2023-05-23T06:05:24;13.83;;;6.13;;
71464;SDS011;59274;49.874;9.154;2023-05-23T06:07:50;11.13;;;5.40;;
71464;SDS011;59274;49.874;9.154;2023-05-23T06:10:16;15.13;;;6.25;;
71464;SDS011;59274;49.874;9.154;2023-05-23T06:12:42;10.75;;;5.10;;
71464;SDS011;59274;49.874;9.154;2023-05-23T06:15:07;13.00;;;5.40;;
71464;SDS011;59274;49.874;9.154;2023-05-23T06:17:38;13.13;;;5.55;;
71464;SDS011;59274;49.874;9.154;2023-05-23T06:20:04;11.27;;;5.70;;
71464;SDS011;59274;49.874;9.154;2023-05-23T06:22:29;13.65;;;6.05;;
71464;SDS011;59274;49.874;9.154;2023-05-23T06:24:55;13.87;;;5.87;;
71464;SDS011;59274;49.874;9.154;2023-05-23T06:27:20;12.50;;;6.00;;
71464;SDS011;59274;49.874;9.154;2023-05-23T06:29:46;13.00;;;6.23;;
71464;SDS011;59274;49.874;9.154;2023-05-23T06:32:11;12.50;;;5.97;;
71464;SDS011;59274;49.874;9.154;2023-05-23T06:34:37;15.93;;;7.63;;
71464;SDS011;59274;49.874;9.154;2023-05-23T06:37:02;13.70;;;6.97;;
71464;SDS011;59274;49.874;9.154;2023-05-23T06:39:28;11.50;;;5.90;;
71464;SDS011;59274;49.874;9.154;2023-05-23T06:41:53;14.40;;;6.68;;
71464;SDS011;59274;49.874;9.154;2023-05-23T06:44:18;12.98;;;6.32;;
71464;SDS011;59274;49.874;9.154;2023-05-23T06:46:44;11.27;;;6.00;;
71464;SDS011;59274;49.874;9.154;2023-05-23T06:49:10;13.00;;;5.75;;
71464;SDS011;59274;49.874;9.154;2023-05-23T06:51:36;10.87;;;5.03;;
71464;SDS011;59274;49.874;9.154;2023-05-23T06:54:01;12.63;;;5.47;;
71464;SDS011;59274;49.874;9.154;2023-05-23T06:56:26;11.83;;;5.57;;
71464;SDS011;59274;49.874;9.154;2023-05-23T06:58:52;10.70;;;5.22;;
71464;SDS011;59274;49.874;9.154;2023-05-23T07:01:17;10.13;;;4.47;;
71464;SDS011;59274;49.874;9.154;2023-05-23T07:03:43;12.60;;;5.47;;
71464;SDS011;59274;49.874;9.154;2023-05-23T07:06:10;10.77;;;5.07;;
71464;SDS011;59274;49.874;9.154;2023-05-23T07:08:36;11.20;;;4.43;;
71464;SDS011;59274;49.874;9.154;2023-05-23T07:11:01;10.13;;;4.73;;
71464;SDS011;59274;49.874;9.154;2023-05-23T07:13:27;10.57;;;4.93;;
71464;SDS011;59274;49.874;9.154;2023-05-23T07:15:52;9.03;;;4.23;;
71464;SDS011;59274;49.874;9.154;2023-05-23T07:18:19;10.33;;;4.77;;
71464;SDS011;59274;49.874;9.154;2023-05-23T07:20:44;9.25;;;4.43;;
71464;SDS011;59274;49.874;9.154;2023-05-23T07:23:10;8.77;;;4.03;;
71464;SDS011;59274;49.874;9.154;2023-05-23T07:25:35;6.77;;;3.40;;
71464;SDS011;59274;49.874;9.154;2023-05-23T07:28:00;8.10;;;3.40;;
71464;SDS011;59274;49.874;9.154;2023-05-23T07:30:26;7.93;;;3.13;;
71464;SDS011;59274;49.874;9.154;2023-05-23T07:32:51;6.73;;;2.70;;
71464;SDS011;59274;49.874;9.154;2023-05-23T07:35:17;5.27;;;2.53;;
71464;SDS011;59274;49.874;9.154;2023-05-23T07:37:48;6.90;;;3.25;;
71464;SDS011;59274;49.874;9.154;2023-05-23T07:40:13;7.05;;;3.45;;
71464;SDS011;59274;49.874;9.154;2023-05-23T07:42:39;7.80;;;3.67;;
71464;SDS011;59274;49.874;9.154;2023-05-23T07:45:04;4.87;;;2.20;;
71464;SDS011;59274;49.874;9.154;2023-05-23T07:47:30;6.13;;;3.03;;
71464;SDS011;59274;49.874;9.154;2023-05-23T07:49:56;6.63;;;3.10;;
71464;SDS011;59274;49.874;9.154;2023-05-23T07:52:21;5.37;;;2.53;;
71464;SDS011;59274;49.874;9.154;2023-05-23T07:54:47;5.75;;;2.40;;
71464;SDS011;59274;49.874;9.154;2023-05-23T07:57:12;6.40;;;2.55;;
71464;SDS011;59274;49.874;9.154;2023-05-23T07:59:39;8.75;;;3.20;;
71464;SDS011;59274;49.874;9.154;2023-05-23T08:02:05;6.67;;;2.60;;
71464;SDS011;59274;49.874;9.154;2023-05-23T08:04:30;4.50;;;2.22;;
71464;SDS011;59274;49.874;9.154;2023-05-23T08:06:57;5.03;;;2.20;;
71464;SDS011;59274;49.874;9.154;2023-05-23T08:09:24;5.47;;;2.38;;
71464;SDS011;59274;49.874;9.154;2023-05-23T08:11:50;5.33;;;2.50;;
71464;SDS011;59274;49.874;9.154;2023-05-23T08:14:15;5.18;;;2.08;;
71464;SDS011;59274;49.874;9.154;2023-05-23T08:16:40;5.00;;;2.37;;
71464;SDS011;59274;49.874;9.154;2023-05-23T08:19:06;5.00;;;2.30;;
71464;SDS011;59274;49.874;9.154;2023-05-23T08:21:32;6.10;;;2.60;;
71464;SDS011;59274;49.874;9.154;2023-05-23T08:23:57;4.73;;;2.30;;
71464;SDS011;59274;49.874;9.154;2023-05-23T08:26:23;5.57;;;2.47;;
71464;SDS011;59274;49.874;9.154;2023-05-23T08:28:48;6.50;;;2.70;;
71464;SDS011;59274;49.874;9.154;2023-05-23T08:31:14;5.87;;;2.70;;
71464;SDS011;59274;49.874;9.154;2023-05-23T08:33:39;6.53;;;2.77;;
71464;SDS011;59274;49.874;9.154;2023-05-23T08:36:05;4.70;;;2.03;;
71464;SDS011;59274;49.874;9.154;2023-05-23T08:38:30;6.47;;;2.92;;
71464;SDS011;59274;49.874;9.154;2023-05-23T08:40:55;5.80;;;2.70;;
71464;SDS011;59274;49.874;9.154;2023-05-23T08:43:26;6.28;;;2.88;;
71464;SDS011;59274;49.874;9.154;2023-05-23T08:45:52;6.43;;;2.75;;
71464;SDS011;59274;49.874;9.154;2023-05-23T08:48:18;5.72;;;2.60;;
71464;SDS011;59274;49.874;9.154;2023-05-23T08:50:45;5.03;;;2.30;;
71464;SDS011;59274;49.874;9.154;2023-05-23T08:53:14;6.70;;;2.50;;
71464;SDS011;59274;49.874;9.154;2023-05-23T08:55:45;5.88;;;2.42;;
71464;SDS011;59274;49.874;9.154;2023-05-23T08:58:12;5.95;;;2.60;;
71464;SDS011;59274;49.874;9.154;2023-05-23T09:00:37;6.33;;;2.70;;
71464;SDS011;59274;49.874;9.154;2023-05-23T09:03:03;5.47;;;2.47;;
71464;SDS011;59274;49.874;9.154;2023-05-23T09:05:29;6.13;;;2.80;;
71464;SDS011;59274;49.874;9.154;2023-05-23T09:07:54;4.97;;;2.50;;
71464;SDS011;59274;49.874;9.154;2023-05-23T09:10:20;5.68;;;2.50;;
71464;SDS011;59274;49.874;9.154;2023-05-23T09:12:46;5.35;;;2.40;;
71464;SDS011;59274;49.874;9.154;2023-05-23T09:15:12;6.43;;;2.20;;
71464;SDS011;59274;49.874;9.154;2023-05-23T09:17:37;4.45;;;2.38;;
71464;SDS011;59274;49.874;9.154;2023-05-23T09:20:13;6.20;;;2.20;;
71464;SDS011;59274;49.874;9.154;2023-05-23T09:22:40;5.00;;;2.30;;
71464;SDS011;59274;49.874;9.154;2023-05-23T09:25:11;5.15;;;2.38;;
71464;SDS011;59274;49.874;9.154;2023-05-23T09:27:37;4.50;;;2.07;;
71464;SDS011;59274;49.874;9.154;2023-05-23T09:30:09;4.60;;;2.08;;
71464;SDS011;59274;49.874;9.154;2023-05-23T09:32:35;4.63;;;2.17;;
71464;SDS011;59274;49.874;9.154;2023-05-23T09:35:02;5.65;;;2.30;;
71464;SDS011;59274;49.874;9.154;2023-05-23T09:37:33;6.95;;;2.70;;
71464;SDS011;59274;49.874;9.154;2023-05-23T09:40:12;6.72;;;2.35;;
71464;SDS011;59274;49.874;9.154;2023-05-23T09:42:42;4.40;;;1.90;;
71464;SDS011;59274;49.874;9.154;2023-05-23T09:45:08;6.00;;;2.47;;
71464;SDS011;59274;49.874;9.154;2023-05-23T09:47:34;6.20;;;2.90;;
71464;SDS011;59274;49.874;9.154;2023-05-23T09:50:00;5.47;;;2.57;;
71464;SDS011;59274;49.874;9.154;2023-05-23T09:52:26;7.10;;;2.75;;
71464;SDS011;59274;49.874;9.154;2023-05-23T09:54:51;6.10;;;3.00;;
71464;SDS011;59274;49.874;9.154;2023-05-23T09:57:18;6.55;;;2.70;;
71464;SDS011;59274;49.874;9.154;2023-05-23T09:59:52;5.72;;;2.78;;
71464;SDS011;59274;49.874;9.154;2023-05-23T10:02:23;5.85;;;2.90;;
71464;SDS011;59274;49.874;9.154;2023-05-23T10:05:21;6.50;;;3.00;;
71464;SDS011;59274;49.874;9.154;2023-05-23T10:07:57;5.50;;;2.95;;
71464;SDS011;59274;49.874;9.154;2023-05-23T10:10:25;6.78;;;3.70;;
71464;SDS011;59274;49.874;9.154;2023-05-23T10:12:55;5.40;;;2.67;;
71464;SDS011;59274;49.874;9.154;2023-05-23T10:15:24;5.70;;;2.42;;
71464;SDS011;59274;49.874;9.154;2023-05-23T10:18:01;6.18;;;3.22;;
71464;SDS011;59274;49.874;9.154;2023-05-23T10:20:32;4.78;;;2.28;;
71464;SDS011;59274;49.874;9.154;2023-05-23T10:23:00;5.53;;;2.65;;
71464;SDS011;59274;49.874;9.154;2023-05-23T10:25:26;6.00;;;3.03;;
71464;SDS011;59274;49.874;9.154;2023-05-23T10:27:56;5.35;;;2.10;;
71464;SDS011;59274;49.874;9.154;2023-05-23T10:30:26;5.05;;;2.40;;
71464;SDS011;59274;49.874;9.154;2023-05-23T10:32:53;3.75;;;1.80;;
71464;SDS011;59274;49.874;9.154;2023-05-23T10:38:07;4.43;;;1.90;;
71464;SDS011;59274;49.874;9.154;2023-05-23T10:41:11;3.87;;;1.87;;
71464;SDS011;59274;49.874;9.154;2023-05-23T10:44:25;4.05;;;2.05;;
71464;SDS011;59274;49.874;9.154;2023-05-23T10:46:53;4.72;;;1.80;;
71464;SDS011;59274;49.874;9.154;2023-05-23T10:49:36;3.78;;;2.00;;
71464;SDS011;59274;49.874;9.154;2023-05-23T10:52:12;5.47;;;2.30;;
71464;SDS011;59274;49.874;9.154;2023-05-23T10:54:43;4.85;;;2.20;;
71464;SDS011;59274;49.874;9.154;2023-05-23T10:57:35;5.80;;;2.50;;
71464;SDS011;59274;49.874;9.154;2023-05-23T10:59:59;3.95;;;2.20;;
71464;SDS011;59274;49.874;9.154;2023-05-23T11:02:26;5.03;;;2.20;;
71464;SDS011;59274;49.874;9.154;2023-05-23T11:11:18;4.72;;;1.98;;
71464;SDS011;59274;49.874;9.154;2023-05-23T11:13:25;4.13;;;2.00;;
71464;SDS011;59274;49.874;9.154;2023-05-23T11:27:15;3.67;;;2.00;;
71464;SDS011;59274;49.874;9.154;2023-05-23T11:29:44;9.07;;;2.00;;
71464;SDS011;59274;49.874;9.154;2023-05-23T11:32:20;2.90;;;1.85;;
71464;SDS011;59274;49.874;9.154;2023-05-23T11:34:45;4.55;;;1.83;;
71464;SDS011;59274;49.874;9.154;2023-05-23T11:37:11;2.93;;;1.80;;
71464;SDS011;59274;49.874;9.154;2023-05-23T11:39:37;3.72;;;2.00;;
71464;SDS011;59274;49.874;9.154;2023-05-23T11:42:04;3.70;;;1.83;;
71464;SDS011;59274;49.874;9.154;2023-05-23T11:44:30;3.47;;;1.95;;
71464;SDS011;59274;49.874;9.154;2023-05-23T11:47:02;3.28;;;1.80;;
71464;SDS011;59274;49.874;9.154;2023-05-23T11:49:30;3.83;;;1.90;;
71464;SDS011;59274;49.874;9.154;2023-05-23T11:52:00;3.20;;;1.77;;
71464;SDS011;59274;49.874;9.154;2023-05-23T11:54:27;3.80;;;1.95;;
71464;SDS011;59274;49.874;9.154;2023-05-23T11:56:53;3.58;;;1.70;;
71464;SDS011;59274;49.874;9.154;2023-05-23T11:59:25;4.05;;;1.80;;
71464;SDS011;59274;49.874;9.154;2023-05-23T12:01:52;3.80;;;1.63;;
71464;SDS011;59274;49.874;9.154;2023-05-23T12:04:18;4.55;;;1.90;;
71464;SDS011;59274;49.874;9.154;2023-05-23T12:06:47;3.33;;;1.70;;
71464;SDS011;59274;49.874;9.154;2023-05-23T12:09:13;3.45;;;1.80;;
71464;SDS011;59274;49.874;9.154;2023-05-23T12:11:39;3.58;;;1.70;;
71464;SDS011;59274;49.874;9.154;2023-05-23T12:14:06;3.55;;;2.00;;
71464;SDS011;59274;49.874;9.154;2023-05-23T12:16:32;3.28;;;1.55;;
71464;SDS011;59274;49.874;9.154;2023-05-23T12:18:59;3.45;;;1.70;;
71464;SDS011;59274;49.874;9.154;2023-05-23T12:21:26;2.75;;;1.35;;
71464;SDS011;59274;49.874;9.154;2023-05-23T12:24:10;4.70;;;2.20;;
71464;SDS011;59274;49.874;9.154;2023-05-23T12:26:47;3.72;;;1.75;;
71464;SDS011;59274;49.874;9.154;2023-05-23T12:29:17;3.00;;;1.65;;
71464;SDS011;59274;49.874;9.154;2023-05-23T12:31:46;3.80;;;1.77;;
71464;SDS011;59274;49.874;9.154;2023-05-23T12:34:12;4.97;;;1.35;;
71464;SDS011;59274;49.874;9.154;2023-05-23T12:36:38;4.53;;;1.60;;
71464;SDS011;59274;49.874;9.154;2023-05-23T12:39:04;3.13;;;1.50;;
71464;SDS011;59274;49.874;9.154;2023-05-23T12:41:31;2.85;;;1.38;;
71464;SDS011;59274;49.874;9.154;2023-05-23T12:43:58;2.92;;;1.70;;
71464;SDS011;59274;49.874;9.154;2023-05-23T12:46:24;2.77;;;1.43;;
71464;SDS011;59274;49.874;9.154;2023-05-23T12:48:51;2.75;;;1.33;;
71464;SDS011;59274;49.874;9.154;2023-05-23T12:51:17;3.03;;;1.80;;
71464;SDS011;59274;49.874;9.154;2023-05-23T12:53:43;2.80;;;1.45;;
71464;SDS011;59274;49.874;9.154;2023-05-23T12:56:08;2.93;;;1.30;;
71464;SDS011;59274;49.874;9.154;2023-05-23T12:58:34;4.33;;;1.37;;
71464;SDS011;59274;49.874;9.154;2023-05-23T13:01:00;2.60;;;1.50;;
71464;SDS011;59274;49.874;9.154;2023-05-23T13:03:29;2.55;;;1.50;;
71464;SDS011;59274;49.874;9.154;2023-05-23T13:05:56;3.00;;;1.48;;
71464;SDS011;59274;49.874;9.154;2023-05-23T13:08:22;2.80;;;1.40;;
71464;SDS011;59274;49.874;9.154;2023-05-23T13:10:48;2.50;;;1.42;;
71464;SDS011;59274;49.874;9.154;2023-05-23T13:13:14;3.30;;;1.60;;
71464;SDS011;59274;49.874;9.154;2023-05-23T13:15:39;2.97;;;1.60;;
71464;SDS011;59274;49.874;9.154;2023-05-23T13:18:05;4.77;;;1.67;;
71464;SDS011;59274;49.874;9.154;2023-05-23T13:20:30;3.23;;;1.60;;
71464;SDS011;59274;49.874;9.154;2023-05-23T13:22:56;2.28;;;1.20;;
71464;SDS011;59274;49.874;9.154;2023-05-23T13:25:22;2.53;;;1.40;;
71464;SDS011;59274;49.874;9.154;2023-05-23T13:27:49;2.40;;;1.20;;
71464;SDS011;59274;49.874;9.154;2023-05-23T13:30:14;3.05;;;1.50;;
71464;SDS011;59274;49.874;9.154;2023-05-23T13:32:40;2.53;;;1.43;;
71464;SDS011;59274;49.874;9.154;2023-05-23T13:35:06;2.00;;;1.30;;
71464;SDS011;59274;49.874;9.154;2023-05-23T13:37:31;3.60;;;1.50;;
71464;SDS011;59274;49.874;9.154;2023-05-23T13:39:57;2.38;;;1.58;;
71464;SDS011;59274;49.874;9.154;2023-05-23T13:42:22;1.23;;;0.90;;
71464;SDS011;59274;49.874;9.154;2023-05-23T13:44:48;1.73;;;1.17;;
71464;SDS011;59274;49.874;9.154;2023-05-23T13:47:13;2.90;;;1.43;;
71464;SDS011;59274;49.874;9.154;2023-05-23T13:49:43;1.55;;;0.98;;
71464;SDS011;59274;49.874;9.154;2023-05-23T13:52:08;2.05;;;1.30;;
71464;SDS011;59274;49.874;9.154;2023-05-23T13:54:34;2.23;;;1.17;;
71464;SDS011;59274;49.874;9.154;2023-05-23T13:57:00;2.25;;;1.15;;
71464;SDS011;59274;49.874;9.154;2023-05-23T13:59:26;2.47;;;1.38;;
71464;SDS011;59274;49.874;9.154;2023-05-23T14:01:52;2.47;;;1.30;;
71464;SDS011;59274;49.874;9.154;2023-05-23T14:04:17;2.85;;;1.30;;
71464;SDS011;59274;49.874;9.154;2023-05-23T14:06:43;2.20;;;1.20;;
71464;SDS011;59274;49.874;9.154;2023-05-23T14:09:09;5.47;;;1.42;;
71464;SDS011;59274;49.874;9.154;2023-05-23T14:11:36;6.32;;;1.38;;
71464;SDS011;59274;49.874;9.154;2023-05-23T14:14:02;2.63;;;1.10;;
71464;SDS011;59274;49.874;9.154;2023-05-23T14:16:27;1.30;;;0.80;;
71464;SDS011;59274;49.874;9.154;2023-05-23T14:18:53;1.57;;;1.10;;
71464;SDS011;59274;49.874;9.154;2023-05-23T14:21:18;1.50;;;0.90;;
71464;SDS011;59274;49.874;9.154;2023-05-23T14:23:44;1.47;;;1.10;;
71464;SDS011;59274;49.874;9.154;2023-05-23T14:26:10;1.30;;;0.93;;
71464;SDS011;59274;49.874;9.154;2023-05-23T14:28:35;1.87;;;1.00;;
71464;SDS011;59274;49.874;9.154;2023-05-23T14:31:00;1.83;;;1.10;;
71464;SDS011;59274;49.874;9.154;2023-05-23T14:33:26;1.75;;;1.13;;
71464;SDS011;59274;49.874;9.154;2023-05-23T14:35:51;1.47;;;1.20;;
71464;SDS011;59274;49.874;9.154;2023-05-23T14:38:17;2.37;;;1.30;;
71464;SDS011;59274;49.874;9.154;2023-05-23T14:40:42;5.33;;;1.30;;
71464;SDS011;59274;49.874;9.154;2023-05-23T14:43:08;1.75;;;0.80;;
71464;SDS011;59274;49.874;9.154;2023-05-23T14:45:34;2.10;;;1.20;;
71464;SDS011;59274;49.874;9.154;2023-05-23T14:48:00;2.07;;;1.10;;
71464;SDS011;59274;49.874;9.154;2023-05-23T14:50:26;1.17;;;1.00;;
71464;SDS011;59274;49.874;9.154;2023-05-23T14:52:51;3.50;;;1.25;;
71464;SDS011;59274;49.874;9.154;2023-05-23T14:55:17;4.95;;;1.52;;
71464;SDS011;59274;49.874;9.154;2023-05-23T14:57:42;1.90;;;1.00;;
71464;SDS011;59274;49.874;9.154;2023-05-23T15:00:08;1.83;;;1.07;;
71464;SDS011;59274;49.874;9.154;2023-05-23T15:02:35;1.42;;;1.08;;